Portada
METAR-TAF:

METAR-TAF

Aeroports :

Al-Kuwait, Kuwait

latitud: 29-13N, longitud: 047-59E, altitud: 55 m

Observació

L'informe es va fer fa 35 minuts, a les 09:00 UTC
Vent 12 kt del Sud-Est
Temperatura 31°C
Humitat 36%
Pressió 1009 hPa
Visibilitat 10 km o més
sense núvols per sota de 1500 mi sense presència de cumulonimbus.

METAR: OKBK 260900Z 13012KT CAVOK 31/14 Q1009 NOSIG

Hora: 12:35 (09:35 UTC)

Pronòstic

L'informe es va fer fa 4 hores i 50 minuts, a les 04:45 UTC
Pronòstic vàlid del 26 a les 06 UTC al 27 a les 12 UTC
Vent 12 kt del Sud-Est amb ràfegues de 22 kt
Visibilitat: 6000 m
Núvols disperses a una alçada de 4000 ft
Cel ennuvolat a una alçada de 8000 ft
Temporalment
l' 26 a les 06 UTC al 26 a les 21 UTC
Visibilitat: 3000 m
Escasses núvols a una alçada de 3000 ft, Cumulonimbus.

TAF: OKBK 260445Z 2606/2712 14012G22KT 6000 SCT040 BKN080 TEMPO 2606/2621 3000 TSRA/BLDU FEW030CB

Observacions i pronòstics meteorològics de més de 4000 aeroports (METAR i TAF).

Les estacions disponibles són els punts grocs i vermells al mapa.

Posi el ratolí al punt desitjat per veure el nom de l'estació.

Feu clic per veure les observacions i els pronòstics meteorològics.

Per canviar el mapa: feu clic els botons verds amb una creu de color negre per apropar; al botó verd amb un guió per allunyar la imatge; o en les fletxes verdes per a mapes adjacents.


METAR-TAF: